Time;durP1;ratioP1;P1;durP2;ratioP2;P2;SDS_P1;SDS_P2;PMS_P1;PMS_P2;Temp;Humidity;BMP_temperature;BMP_pressure;BME280_temperature;BME280_humidity;BME280_pressure;Samples;Min_cycle;Max_cycle;Signal;HPM_P1;HPM_P2
2023/05/08 00:00:03;;;;;;;4.70;4.30;;;;;;;;;;5045472;28;20262;-50
2023/05/08 00:02:31;;;;;;;4.57;4.10;;;;;;;;;;5040110;28;20293;-52
2023/05/08 00:04:58;;;;;;;4.53;4.13;;;;;;;;;;5041327;28;20331;-52
2023/05/08 00:07:24;;;;;;;4.20;3.90;;;;;;;;;;5043339;28;20781;-52
2023/05/08 00:09:51;;;;;;;4.63;4.17;;;;;;;;;;5044867;28;20238;-53
2023/05/08 00:12:18;;;;;;;4.30;3.90;;;;;;;;;;5030234;28;20604;-51
2023/05/08 00:14:44;;;;;;;4.57;3.87;;;;;;;;;;5035467;28;20231;-51
2023/05/08 00:17:11;;;;;;;4.27;3.80;;;;;;;;;;5027102;28;20259;-51
2023/05/08 00:19:39;;;;;;;4.63;4.23;;;;;;;;;;5013211;28;20851;-51
2023/05/08 00:22:05;;;;;;;5.23;4.20;;;;;;;;;;5021540;28;20243;-50
2023/05/08 00:24:32;;;;;;;5.83;4.00;;;;;;;;;;5037663;28;20239;-52
2023/05/08 00:26:58;;;;;;;4.97;4.37;;;;;;;;;;5038218;28;20819;-51
2023/05/08 00:29:25;;;;;;;4.10;3.80;;;;;;;;;;5044742;28;20322;-51
2023/05/08 00:31:51;;;;;;;4.07;3.67;;;;;;;;;;5041751;28;20239;-52
2023/05/08 00:34:18;;;;;;;4.40;4.00;;;;;;;;;;5034929;28;20955;-50
2023/05/08 00:36:46;;;;;;;4.13;3.83;;;;;;;;;;5037086;28;20310;-50
2023/05/08 00:39:12;;;;;;;4.43;4.03;;;;;;;;;;5031659;28;20232;-51
2023/05/08 00:41:39;;;;;;;4.37;4.07;;;;;;;;;;5042401;28;20730;-51
2023/05/08 00:44:05;;;;;;;4.30;3.90;;;;;;;;;;5043432;28;20289;-51
2023/05/08 00:46:32;;;;;;;4.40;4.10;;;;;;;;;;5042705;28;20611;-50
2023/05/08 00:48:58;;;;;;;5.67;4.30;;;;;;;;;;5035997;28;20256;-51
2023/05/08 00:51:26;;;;;;;5.00;4.60;;;;;;;;;;5041882;28;20562;-51
2023/05/08 00:53:54;;;;;;;6.00;5.20;;;;;;;;;;5043837;28;20661;-52
2023/05/08 00:56:22;;;;;;;5.77;4.67;;;;;;;;;;5043904;28;20266;-51
2023/05/08 00:58:49;;;;;;;4.40;4.00;;;;;;;;;;5045721;28;20326;-50
2023/05/08 01:01:16;;;;;;;5.00;4.50;;;;;;;;;;5043242;28;20275;-52
2023/05/08 01:03:43;;;;;;;4.40;4.03;;;;;;;;;;5055015;28;20295;-53
2023/05/08 01:06:09;;;;;;;6.20;4.87;;;;;;;;;;5047752;28;20302;-51
2023/05/08 01:08:36;;;;;;;5.27;4.77;;;;;;;;;;5050573;28;20234;-53
2023/05/08 01:11:09;;;;;;;5.47;4.47;;;;;;;;;;5046363;28;20319;-52
2023/05/08 01:13:42;;;;;;;5.40;4.90;;;;;;;;;;5043119;28;20239;-54
2023/05/08 01:16:13;;;;;;;6.20;4.77;;;;;;;;;;5041331;28;20229;-52
2023/05/08 01:18:43;;;;;;;4.87;4.47;;;;;;;;;;5049315;28;20262;-52
2023/05/08 01:21:13;;;;;;;5.13;4.63;;;;;;;;;;5052435;28;20228;-52
2023/05/08 01:23:56;;;;;;;7.83;4.93;;;;;;;;;;5046106;28;20232;-52
2023/05/08 01:26:38;;;;;;;5.70;5.10;;;;;;;;;;5046028;28;20316;-51
2023/05/08 01:29:25;;;;;;;5.27;4.77;;;;;;;;;;5048002;28;20232;-52
2023/05/08 01:32:01;;;;;;;5.53;5.13;;;;;;;;;;5044939;28;20240;-51
2023/05/08 01:34:32;;;;;;;5.30;4.90;;;;;;;;;;5031667;28;20220;-51
2023/05/08 01:37:00;;;;;;;5.37;4.87;;;;;;;;;;5044393;28;20232;-52
2023/05/08 01:39:32;;;;;;;5.47;4.97;;;;;;;;;;5045475;28;20317;-52
2023/05/08 01:42:00;;;;;;;5.90;4.93;;;;;;;;;;5043766;28;20345;-52
2023/05/08 01:44:29;;;;;;;4.93;4.53;;;;;;;;;;5046963;28;20232;-51
2023/05/08 01:46:55;;;;;;;6.33;5.00;;;;;;;;;;5051325;28;20232;-52
2023/05/08 01:49:28;;;;;;;5.03;4.53;;;;;;;;;;5052824;28;20719;-52
2023/05/08 01:51:57;;;;;;;7.97;4.93;;;;;;;;;;5045382;28;20240;-51
2023/05/08 01:54:25;;;;;;;5.20;4.70;;;;;;;;;;5045671;28;20703;-52
2023/05/08 01:56:54;;;;;;;5.13;4.63;;;;;;;;;;5046995;28;20243;-52
2023/05/08 01:59:22;;;;;;;5.67;5.20;;;;;;;;;;5050335;28;20285;-52
2023/05/08 02:01:49;;;;;;;5.23;4.80;;;;;;;;;;5048357;28;20266;-51
2023/05/08 02:04:16;;;;;;;5.50;5.03;;;;;;;;;;5041066;28;20711;-52
2023/05/08 02:06:44;;;;;;;5.63;5.00;;;;;;;;;;5043381;28;20240;-52
2023/05/08 02:09:11;;;;;;;5.43;4.93;;;;;;;;;;5044196;28;20252;-52
2023/05/08 02:11:40;;;;;;;4.63;4.23;;;;;;;;;;5045020;28;20231;-51
2023/05/08 02:14:07;;;;;;;5.50;5.00;;;;;;;;;;5027070;28;20232;-50
2023/05/08 02:16:34;;;;;;;5.97;5.47;;;;;;;;;;5039320;28;21565;-51
2023/05/08 02:19:01;;;;;;;5.83;5.30;;;;;;;;;;5044809;28;20281;-50
2023/05/08 02:21:29;;;;;;;5.63;4.93;;;;;;;;;;5039216;28;20230;-50
2023/05/08 02:23:57;;;;;;;5.83;5.33;;;;;;;;;;5044819;28;20232;-52
2023/05/08 02:26:25;;;;;;;6.00;5.50;;;;;;;;;;5045952;28;20711;-51
2023/05/08 02:28:52;;;;;;;5.63;5.13;;;;;;;;;;5032859;28;20232;-52
2023/05/08 02:31:20;;;;;;;6.20;5.70;;;;;;;;;;5044065;28;20232;-49
2023/05/08 02:33:48;;;;;;;7.03;5.37;;;;;;;;;;5044487;28;20232;-52
2023/05/08 02:36:17;;;;;;;6.73;6.13;;;;;;;;;;5043923;28;20572;-54
2023/05/08 02:38:46;;;;;;;6.27;5.63;;;;;;;;;;5040854;28;20240;-51
2023/05/08 02:41:14;;;;;;;5.53;5.03;;;;;;;;;;5042291;28;20264;-50
2023/05/08 02:43:41;;;;;;;5.77;5.20;;;;;;;;;;5044183;28;20316;-52
2023/05/08 02:46:11;;;;;;;6.23;5.67;;;;;;;;;;5045051;28;20633;-51
2023/05/08 02:48:38;;;;;;;7.77;5.57;;;;;;;;;;5045194;28;20754;-52
2023/05/08 02:51:10;;;;;;;6.40;5.80;;;;;;;;;;5044783;28;21670;-51
2023/05/08 02:53:40;;;;;;;5.87;5.30;;;;;;;;;;5043913;28;20671;-51
2023/05/08 02:56:10;;;;;;;6.10;5.60;;;;;;;;;;5045202;28;20235;-50
2023/05/08 02:58:42;;;;;;;6.67;5.90;;;;;;;;;;5041050;28;20323;-52
2023/05/08 03:01:18;;;;;;;5.67;5.17;;;;;;;;;;5042778;28;20631;-51
2023/05/08 03:03:46;;;;;;;8.40;5.00;;;;;;;;;;5037909;28;20235;-50
2023/05/08 03:06:14;;;;;;;7.33;6.47;;;;;;;;;;5032603;28;20228;-51
2023/05/08 03:08:42;;;;;;;6.37;5.57;;;;;;;;;;5036115;28;20313;-51
2023/05/08 03:11:11;;;;;;;6.00;5.40;;;;;;;;;;5045429;28;20223;-52
2023/05/08 03:13:41;;;;;;;5.80;5.27;;;;;;;;;;5045567;28;20289;-50
2023/05/08 03:16:10;;;;;;;6.10;5.50;;;;;;;;;;5042527;28;20231;-52
2023/05/08 03:18:41;;;;;;;8.30;6.20;;;;;;;;;;5044694;28;20232;-51
2023/05/08 03:21:09;;;;;;;6.90;6.03;;;;;;;;;;5045156;28;20228;-51
2023/05/08 03:23:37;;;;;;;5.77;5.27;;;;;;;;;;5044213;28;20596;-51
2023/05/08 03:26:04;;;;;;;6.97;6.37;;;;;;;;;;5043686;28;20235;-51
2023/05/08 03:28:31;;;;;;;6.67;6.07;;;;;;;;;;5045440;28;20241;-50
2023/05/08 03:31:00;;;;;;;6.70;5.93;;;;;;;;;;5041789;28;20331;-50
2023/05/08 03:33:28;;;;;;;5.93;5.33;;;;;;;;;;5031231;28;20712;-51
2023/05/08 03:35:55;;;;;;;5.70;5.20;;;;;;;;;;5028156;28;20319;-52
2023/05/08 03:38:22;;;;;;;7.00;5.83;;;;;;;;;;5024957;28;20278;-51
2023/05/08 03:40:49;;;;;;;7.23;6.53;;;;;;;;;;5029110;28;20235;-53
2023/05/08 03:43:16;;;;;;;7.97;5.80;;;;;;;;;;5034545;28;20236;-53
2023/05/08 03:45:44;;;;;;;6.53;5.83;;;;;;;;;;5036505;28;20675;-50
2023/05/08 03:48:13;;;;;;;6.63;5.80;;;;;;;;;;5025942;28;20239;-53
2023/05/08 03:50:40;;;;;;;5.73;5.23;;;;;;;;;;5027570;28;20232;-51
2023/05/08 03:53:06;;;;;;;6.60;6.07;;;;;;;;;;5058818;28;20254;-52
2023/05/08 03:55:33;;;;;;;6.07;5.53;;;;;;;;;;5033756;28;20618;-51
2023/05/08 03:58:04;;;;;;;5.93;5.10;;;;;;;;;;5026082;28;20243;-51
2023/05/08 04:00:37;;;;;;;6.60;6.00;;;;;;;;;;5024157;28;20228;-52
2023/05/08 04:03:09;;;;;;;6.33;5.73;;;;;;;;;;5029081;28;20824;-51
2023/05/08 04:05:41;;;;;;;6.53;5.60;;;;;;;;;;5036153;28;20270;-51
2023/05/08 04:08:15;;;;;;;6.23;5.67;;;;;;;;;;5039460;28;20322;-53
2023/05/08 04:10:43;;;;;;;6.67;5.93;;;;;;;;;;5043421;28;20309;-52
2023/05/08 04:13:12;;;;;;;5.87;5.37;;;;;;;;;;5042523;28;20245;-51
2023/05/08 04:15:40;;;;;;;6.60;5.97;;;;;;;;;;5043107;28;20232;-51
2023/05/08 04:18:09;;;;;;;6.70;6.00;;;;;;;;;;5042666;28;20232;-52
2023/05/08 04:20:39;;;;;;;6.53;5.93;;;;;;;;;;5042169;28;20613;-50
2023/05/08 04:23:07;;;;;;;6.83;5.97;;;;;;;;;;5041961;28;20366;-51
2023/05/08 04:25:36;;;;;;;7.33;5.63;;;;;;;;;;5043634;28;20252;-51
2023/05/08 04:28:03;;;;;;;7.10;6.40;;;;;;;;;;5044926;28;20242;-52
2023/05/08 04:30:29;;;;;;;6.47;5.83;;;;;;;;;;5043607;28;20231;-50
2023/05/08 04:32:56;;;;;;;7.13;6.43;;;;;;;;;;5042848;28;20232;-51
2023/05/08 04:35:23;;;;;;;5.83;5.23;;;;;;;;;;5042977;28;20220;-52
2023/05/08 04:37:50;;;;;;;6.97;6.27;;;;;;;;;;5042679;28;20236;-51
2023/05/08 04:40:18;;;;;;;6.27;5.77;;;;;;;;;;5041598;28;20618;-50
2023/05/08 04:42:46;;;;;;;6.10;5.50;;;;;;;;;;5027615;28;20331;-51
2023/05/08 04:45:12;;;;;;;6.23;5.63;;;;;;;;;;5023440;28;20723;-51
2023/05/08 04:47:39;;;;;;;5.93;5.37;;;;;;;;;;5043874;28;20236;-51
2023/05/08 04:50:06;;;;;;;6.37;5.77;;;;;;;;;;5040914;28;20394;-53
2023/05/08 04:52:32;;;;;;;6.57;5.87;;;;;;;;;;5023822;28;20232;-50
2023/05/08 04:54:59;;;;;;;8.00;6.20;;;;;;;;;;5033110;28;20232;-51
2023/05/08 04:57:27;;;;;;;8.30;5.80;;;;;;;;;;5043392;28;20715;-50
2023/05/08 04:59:53;;;;;;;6.10;5.60;;;;;;;;;;5033222;28;20876;-51
2023/05/08 05:02:20;;;;;;;6.30;5.70;;;;;;;;;;5023571;28;20637;-50
2023/05/08 05:04:46;;;;;;;6.80;6.20;;;;;;;;;;5039251;28;20231;-51
2023/05/08 05:07:13;;;;;;;5.60;5.10;;;;;;;;;;5043825;28;20236;-51
2023/05/08 05:09:39;;;;;;;7.77;5.80;;;;;;;;;;5043068;28;20342;-51
2023/05/08 05:12:06;;;;;;;7.47;6.57;;;;;;;;;;5040978;28;20248;-51
2023/05/08 05:14:34;;;;;;;8.13;5.80;;;;;;;;;;5043391;28;20234;-52
2023/05/08 05:17:01;;;;;;;6.53;5.23;;;;;;;;;;5042309;28;20236;-52
2023/05/08 05:19:28;;;;;;;6.70;5.37;;;;;;;;;;5042721;28;20253;-51
2023/05/08 05:21:54;;;;;;;6.30;5.70;;;;;;;;;;5041549;28;20260;-51
2023/05/08 05:24:21;;;;;;;5.73;5.13;;;;;;;;;;5040835;28;20948;-51
2023/05/08 05:26:48;;;;;;;5.83;5.20;;;;;;;;;;5041834;28;20301;-51
2023/05/08 05:29:14;;;;;;;7.67;5.10;;;;;;;;;;5044398;28;20303;-53
2023/05/08 05:31:42;;;;;;;7.17;5.13;;;;;;;;;;5042158;28;20304;-51
2023/05/08 05:34:09;;;;;;;6.83;6.07;;;;;;;;;;5040927;28;20993;-52
2023/05/08 05:36:35;;;;;;;5.77;5.17;;;;;;;;;;5026057;28;20224;-50
2023/05/08 05:39:03;;;;;;;8.03;5.70;;;;;;;;;;5030969;28;20231;-51
2023/05/08 05:41:29;;;;;;;5.33;4.83;;;;;;;;;;5041399;28;20232;-51
2023/05/08 05:43:56;;;;;;;6.53;5.47;;;;;;;;;;5050142;28;20797;-51
2023/05/08 05:46:26;;;;;;;7.23;5.67;;;;;;;;;;5040445;28;20236;-51
2023/05/08 05:48:54;;;;;;;8.00;5.00;;;;;;;;;;5019819;28;20236;-52
2023/05/08 05:51:21;;;;;;;6.83;5.47;;;;;;;;;;5016481;28;20229;-52
2023/05/08 05:53:48;;;;;;;4.50;4.10;;;;;;;;;;5020290;28;20731;-52
2023/05/08 05:56:14;;;;;;;7.50;5.13;;;;;;;;;;5023919;28;20670;-51
2023/05/08 05:58:43;;;;;;;4.87;4.23;;;;;;;;;;5021852;28;20327;-51
2023/05/08 06:01:10;;;;;;;4.43;4.03;;;;;;;;;;5033206;28;20653;-51
2023/05/08 06:03:37;;;;;;;5.07;4.67;;;;;;;;;;5042890;28;20228;-51
2023/05/08 06:06:05;;;;;;;5.13;4.60;;;;;;;;;;5042886;28;20236;-51
2023/05/08 06:08:32;;;;;;;6.07;4.17;;;;;;;;;;5046204;28;20297;-52
2023/05/08 06:10:58;;;;;;;4.80;4.27;;;;;;;;;;5043905;28;20364;-51
2023/05/08 06:13:25;;;;;;;5.87;4.33;;;;;;;;;;5045581;28;20234;-50
2023/05/08 06:15:55;;;;;;;3.97;3.67;;;;;;;;;;5046627;28;20314;-52
2023/05/08 06:18:22;;;;;;;4.50;4.03;;;;;;;;;;5043328;28;20228;-50
2023/05/08 06:20:48;;;;;;;4.30;3.87;;;;;;;;;;5045425;28;20240;-53
2023/05/08 06:23:16;;;;;;;4.63;3.87;;;;;;;;;;5045236;28;20571;-52
2023/05/08 06:25:43;;;;;;;3.63;3.33;;;;;;;;;;5037830;28;20232;-50
2023/05/08 06:28:09;;;;;;;4.17;3.77;;;;;;;;;;5046939;28;20235;-50
2023/05/08 06:30:36;;;;;;;3.73;3.43;;;;;;;;;;5046493;28;20235;-50
2023/05/08 06:33:03;;;;;;;3.50;3.20;;;;;;;;;;5043513;28;20246;-51
2023/05/08 06:35:29;;;;;;;4.17;3.73;;;;;;;;;;5045303;28;20223;-51
2023/05/08 06:37:56;;;;;;;6.13;3.37;;;;;;;;;;5046059;28;20235;-51
2023/05/08 06:40:24;;;;;;;3.80;3.50;;;;;;;;;;5045561;28;20250;-51
2023/05/08 06:42:50;;;;;;;4.83;2.90;;;;;;;;;;5045195;28;20232;-50
2023/05/08 06:45:17;;;;;;;3.43;3.17;;;;;;;;;;5034476;28;20267;-50
2023/05/08 06:47:43;;;;;;;3.47;2.60;;;;;;;;;;5028985;28;20958;-51
2023/05/08 06:50:10;;;;;;;3.60;3.30;;;;;;;;;;5035011;28;20232;-51
2023/05/08 06:52:37;;;;;;;3.93;3.30;;;;;;;;;;5043093;28;20228;-51
2023/05/08 06:55:04;;;;;;;2.77;2.47;;;;;;;;;;5038116;28;20239;-51
2023/05/08 06:57:31;;;;;;;6.67;3.63;;;;;;;;;;5037346;28;20237;-51
2023/05/08 06:59:58;;;;;;;3.10;2.90;;;;;;;;;;5039069;28;20228;-51
2023/05/08 07:02:24;;;;;;;5.40;3.17;;;;;;;;;;5038579;28;20232;-51
2023/05/08 07:04:51;;;;;;;3.33;3.03;;;;;;;;;;5045653;28;20236;-51
2023/05/08 07:07:17;;;;;;;4.20;3.80;;;;;;;;;;5045597;28;20236;-51
2023/05/08 07:09:44;;;;;;;4.33;3.37;;;;;;;;;;5045907;28;20691;-52
2023/05/08 07:12:10;;;;;;;5.13;3.17;;;;;;;;;;5035747;28;20245;-51
2023/05/08 07:14:38;;;;;;;3.63;3.33;;;;;;;;;;5011341;28;20251;-51
2023/05/08 07:17:06;;;;;;;3.43;3.13;;;;;;;;;;5032087;28;20240;-51
2023/05/08 07:19:33;;;;;;;2.80;2.60;;;;;;;;;;5044030;28;20246;-52
2023/05/08 07:22:00;;;;;;;3.27;2.93;;;;;;;;;;5052573;28;20768;-51
2023/05/08 07:24:26;;;;;;;4.07;3.20;;;;;;;;;;5056794;28;20265;-51
2023/05/08 07:26:53;;;;;;;3.23;2.93;;;;;;;;;;5050031;28;20727;-52
2023/05/08 07:29:20;;;;;;;3.33;2.90;;;;;;;;;;5044573;28;20231;-51
2023/05/08 07:31:48;;;;;;;2.83;2.63;;;;;;;;;;5040090;28;20248;-52
2023/05/08 07:34:14;;;;;;;3.05;2.85;;;;;;;;;;5045125;28;20312;-52
2023/05/08 07:36:42;;;;;;;6.40;2.95;;;;;;;;;;5043209;28;20290;-49
2023/05/08 07:39:09;;;;;;;2.60;2.40;;;;;;;;;;5029229;28;20274;-51
2023/05/08 07:41:37;;;;;;;3.53;2.45;;;;;;;;;;5039120;28;20723;-51
2023/05/08 07:44:04;;;;;;;3.00;2.77;;;;;;;;;;5027383;28;20245;-50
2023/05/08 07:46:30;;;;;;;2.50;2.30;;;;;;;;;;5045736;28;20743;-50
2023/05/08 07:48:58;;;;;;;2.30;2.10;;;;;;;;;;5036149;28;20236;-51
2023/05/08 07:51:25;;;;;;;3.78;2.67;;;;;;;;;;5025404;28;20327;-51
2023/05/08 07:53:53;;;;;;;3.97;2.88;;;;;;;;;;5031529;28;20339;-51
2023/05/08 07:56:20;;;;;;;2.78;2.58;;;;;;;;;;5033285;28;20231;-52
2023/05/08 07:58:47;;;;;;;2.65;2.30;;;;;;;;;;5042402;28;20235;-51
2023/05/08 08:01:16;;;;;;;2.80;2.60;;;;;;;;;;5043038;28;20228;-51
2023/05/08 08:03:43;;;;;;;3.00;2.22;;;;;;;;;;5043286;28;20234;-50
2023/05/08 08:06:10;;;;;;;3.42;2.60;;;;;;;;;;5045748;28;20713;-49
2023/05/08 08:08:37;;;;;;;3.63;2.88;;;;;;;;;;5044232;28;20224;-52
2023/05/08 08:11:04;;;;;;;2.35;2.15;;;;;;;;;;5044361;28;20662;-51
2023/05/08 08:13:31;;;;;;;2.60;2.40;;;;;;;;;;5039029;28;21489;-52
2023/05/08 08:15:58;;;;;;;2.60;2.40;;;;;;;;;;5042520;28;20228;-53
2023/05/08 08:18:24;;;;;;;3.13;2.53;;;;;;;;;;5043904;28;20230;-52
2023/05/08 08:20:51;;;;;;;6.30;2.90;;;;;;;;;;5041382;28;20231;-52
2023/05/08 08:23:19;;;;;;;5.82;2.20;;;;;;;;;;5037551;28;20239;-50
2023/05/08 08:25:45;;;;;;;5.82;2.47;;;;;;;;;;5041758;28;20239;-51
2023/05/08 08:28:12;;;;;;;2.97;2.78;;;;;;;;;;5041726;28;20240;-52
2023/05/08 08:30:39;;;;;;;2.70;2.50;;;;;;;;;;5038760;28;20255;-51
2023/05/08 08:33:06;;;;;;;2.83;2.63;;;;;;;;;;5039851;28;20321;-51
2023/05/08 08:35:32;;;;;;;5.75;2.70;;;;;;;;;;5039751;28;20232;-53
2023/05/08 08:37:59;;;;;;;3.28;2.50;;;;;;;;;;5043768;28;20238;-51
2023/05/08 08:40:27;;;;;;;6.18;2.55;;;;;;;;;;5029330;28;20232;-52
2023/05/08 08:42:54;;;;;;;2.90;2.20;;;;;;;;;;5022409;28;20712;-50
2023/05/08 08:45:21;;;;;;;4.57;2.00;;;;;;;;;;5035663;28;20313;-51
2023/05/08 08:47:48;;;;;;;5.25;2.72;;;;;;;;;;5040095;28;20236;-55
2023/05/08 08:50:15;;;;;;;2.85;2.55;;;;;;;;;;5043008;28;20281;-51
2023/05/08 08:52:44;;;;;;;2.85;2.38;;;;;;;;;;5042379;28;20274;-50
2023/05/08 08:55:12;;;;;;;2.58;2.38;;;;;;;;;;5045628;28;20228;-51
2023/05/08 08:57:45;;;;;;;2.83;2.30;;;;;;;;;;5047246;28;20284;-51
2023/05/08 09:00:12;;;;;;;2.53;2.33;;;;;;;;;;5043178;28;20232;-51
2023/05/08 09:02:38;;;;;;;2.33;2.08;;;;;;;;;;5044144;28;20235;-51
2023/05/08 09:05:05;;;;;;;4.50;2.53;;;;;;;;;;5043380;28;20236;-51
2023/05/08 09:07:32;;;;;;;3.55;1.92;;;;;;;;;;5041871;28;20311;-52
2023/05/08 09:09:59;;;;;;;2.00;1.90;;;;;;;;;;5048133;28;20244;-51
2023/05/08 09:12:25;;;;;;;2.47;2.28;;;;;;;;;;5039463;28;20239;-52
2023/05/08 09:14:53;;;;;;;3.30;2.03;;;;;;;;;;5048432;28;20232;-52
2023/05/08 09:17:19;;;;;;;5.13;2.72;;;;;;;;;;5049629;28;20227;-51
2023/05/08 09:19:48;;;;;;;2.65;2.28;;;;;;;;;;5042792;28;20238;-50
2023/05/08 09:22:15;;;;;;;2.38;1.80;;;;;;;;;;5048779;28;20284;-51
2023/05/08 09:24:54;;;;;;;4.22;2.83;;;;;;;;;;5045525;28;20245;-52
2023/05/08 09:27:21;;;;;;;2.30;2.10;;;;;;;;;;5050407;28;20703;-51
2023/05/08 09:29:57;;;;;;;5.00;2.17;;;;;;;;;;5048669;28;20231;-51
2023/05/08 09:32:25;;;;;;;8.38;2.30;;;;;;;;;;5039015;28;20323;-52
2023/05/08 09:34:52;;;;;;;2.28;2.08;;;;;;;;;;5040093;28;20235;-51
2023/05/08 09:37:18;;;;;;;2.50;2.30;;;;;;;;;;5037767;28;20613;-50
2023/05/08 09:39:46;;;;;;;2.58;2.38;;;;;;;;;;5041082;28;20291;-51
2023/05/08 09:42:13;;;;;;;6.32;3.03;;;;;;;;;;5043369;28;20248;-50
2023/05/08 09:44:46;;;;;;;3.63;2.72;;;;;;;;;;5047412;28;20289;-51
2023/05/08 09:47:13;;;;;;;2.33;2.13;;;;;;;;;;5044555;28;20742;-51
2023/05/08 09:49:55;;;;;;;2.72;2.20;;;;;;;;;;5043880;28;20661;-52
2023/05/08 09:52:22;;;;;;;2.75;2.13;;;;;;;;;;5038561;28;20586;-52
2023/05/08 09:54:49;;;;;;;2.42;2.22;;;;;;;;;;5047632;28;20355;-51
2023/05/08 09:57:15;;;;;;;3.25;2.88;;;;;;;;;;5050751;28;20228;-51
2023/05/08 09:59:42;;;;;;;2.70;2.47;;;;;;;;;;5059578;28;20235;-52
2023/05/08 10:02:14;;;;;;;5.38;2.10;;;;;;;;;;5055224;28;20231;-51
2023/05/08 10:04:42;;;;;;;3.30;2.85;;;;;;;;;;5045296;28;20673;-52
2023/05/08 10:07:09;;;;;;;4.93;3.28;;;;;;;;;;5042636;28;20236;-50
2023/05/08 10:09:36;;;;;;;6.97;3.33;;;;;;;;;;5041192;28;20231;-51
2023/05/08 10:12:02;;;;;;;2.50;2.17;;;;;;;;;;5043581;28;20243;-50
2023/05/08 10:14:29;;;;;;;3.00;2.60;;;;;;;;;;5043600;28;20228;-50
2023/05/08 10:16:56;;;;;;;2.42;1.90;;;;;;;;;;5043777;28;20243;-52
2023/05/08 10:19:23;;;;;;;2.17;2.08;;;;;;;;;;5041678;28;20228;-51
2023/05/08 10:21:52;;;;;;;2.60;2.20;;;;;;;;;;5042487;28;20239;-50
2023/05/08 10:24:20;;;;;;;2.50;2.30;;;;;;;;;;5042038;28;20236;-51
2023/05/08 10:26:53;;;;;;;3.67;2.40;;;;;;;;;;5039797;28;20691;-52
2023/05/08 10:29:21;;;;;;;2.95;1.98;;;;;;;;;;5041350;28;20869;-51
2023/05/08 10:31:50;;;;;;;2.83;2.15;;;;;;;;;;5037806;28;20334;-51
2023/05/08 10:34:19;;;;;;;2.78;2.30;;;;;;;;;;5045522;28;20255;-52
2023/05/08 10:36:46;;;;;;;2.97;2.53;;;;;;;;;;5040400;28;20243;-50
2023/05/08 10:39:14;;;;;;;4.35;2.65;;;;;;;;;;5043992;28;20236;-51
2023/05/08 10:41:41;;;;;;;2.25;2.05;;;;;;;;;;5039624;28;20235;-51
2023/05/08 10:44:08;;;;;;;2.85;2.42;;;;;;;;;;5044918;28;20227;-51
2023/05/08 10:46:37;;;;;;;2.22;2.00;;;;;;;;;;5045449;28;20299;-51
2023/05/08 10:49:09;;;;;;;2.40;2.00;;;;;;;;;;5044846;28;20243;-51
2023/05/08 10:51:38;;;;;;;3.53;2.20;;;;;;;;;;5045073;28;20240;-51
2023/05/08 10:54:06;;;;;;;5.75;2.42;;;;;;;;;;5041699;28;20236;-52
2023/05/08 10:56:37;;;;;;;2.40;2.20;;;;;;;;;;5047879;28;20247;-53
2023/05/08 10:59:05;;;;;;;5.75;2.00;;;;;;;;;;5049595;28;20238;-52
2023/05/08 11:01:31;;;;;;;4.93;1.90;;;;;;;;;;5046443;28;20236;-50
2023/05/08 11:03:58;;;;;;;1.65;1.55;;;;;;;;;;5043767;28;20232;-51
2023/05/08 11:06:44;;;;;;;3.33;1.92;;;;;;;;;;5044216;28;20234;-51
2023/05/08 11:09:14;;;;;;;5.60;2.15;;;;;;;;;;5044174;28;20741;-51
2023/05/08 11:11:49;;;;;;;3.95;2.05;;;;;;;;;;5041064;28;20255;-52
2023/05/08 11:14:16;;;;;;;2.78;2.13;;;;;;;;;;5045694;28;20231;-51
2023/05/08 11:17:01;;;;;;;3.55;1.98;;;;;;;;;;5044544;28;20749;-52
2023/05/08 11:19:28;;;;;;;2.97;2.00;;;;;;;;;;5044292;28;20307;-51
2023/05/08 11:22:16;;;;;;;1.80;1.70;;;;;;;;;;5043215;28;20250;-52
2023/05/08 11:24:50;;;;;;;3.95;2.33;;;;;;;;;;5037953;28;20240;-50
2023/05/08 11:27:30;;;;;;;2.30;2.10;;;;;;;;;;5041947;28;20714;-52
2023/05/08 11:30:15;;;;;;;1.88;1.77;;;;;;;;;;5038243;28;20243;-50
2023/05/08 11:33:03;;;;;;;2.33;2.00;;;;;;;;;;5042727;28;20772;-50
2023/05/08 11:35:43;;;;;;;2.22;2.03;;;;;;;;;;5037026;28;20223;-52
2023/05/08 11:38:23;;;;;;;3.33;2.15;;;;;;;;;;5045663;28;21283;-52
2023/05/08 11:40:57;;;;;;;5.20;1.85;;;;;;;;;;5041104;28;20234;-53
2023/05/08 11:43:40;;;;;;;3.33;2.05;;;;;;;;;;5043191;28;20238;-50
2023/05/08 11:46:07;;;;;;;2.65;1.95;;;;;;;;;;5041059;28;20228;-50
2023/05/08 11:48:34;;;;;;;1.98;1.88;;;;;;;;;;5031477;28;20228;-51
2023/05/08 11:51:01;;;;;;;2.55;2.17;;;;;;;;;;5040671;28;20232;-51
2023/05/08 11:53:27;;;;;;;5.07;1.80;;;;;;;;;;5042672;28;20231;-51
2023/05/08 11:55:54;;;;;;;5.95;2.20;;;;;;;;;;5045408;28;20239;-50
2023/05/08 11:58:20;;;;;;;12.32;2.58;;;;;;;;;;5044124;28;20281;-51
2023/05/08 12:00:48;;;;;;;2.80;2.13;;;;;;;;;;5044274;28;20235;-51
2023/05/08 12:03:15;;;;;;;3.20;2.90;;;;;;;;;;5039435;28;20242;-51
2023/05/08 12:05:42;;;;;;;4.10;2.25;;;;;;;;;;5041360;28;20236;-53
2023/05/08 12:08:08;;;;;;;5.90;1.90;;;;;;;;;;5041139;28;20238;-51
2023/05/08 12:10:39;;;;;;;2.90;2.40;;;;;;;;;;5045196;28;20746;-51
2023/05/08 12:13:15;;;;;;;2.83;1.52;;;;;;;;;;5043682;28;20247;-51
2023/05/08 12:15:41;;;;;;;3.90;2.20;;;;;;;;;;5042963;28;20243;-52
2023/05/08 12:18:09;;;;;;;3.65;1.95;;;;;;;;;;5042827;28;20236;-51
2023/05/08 12:20:35;;;;;;;2.45;1.92;;;;;;;;;;5039229;28;22057;-51
2023/05/08 12:23:02;;;;;;;2.67;2.00;;;;;;;;;;5041637;28;20242;-52
2023/05/08 12:25:29;;;;;;;6.30;2.08;;;;;;;;;;5038193;28;20234;-52
2023/05/08 12:27:56;;;;;;;3.35;2.30;;;;;;;;;;5039919;28;20263;-51
2023/05/08 12:30:22;;;;;;;4.47;1.90;;;;;;;;;;5031442;28;20228;-51
2023/05/08 12:32:49;;;;;;;4.03;1.58;;;;;;;;;;5040036;28;20236;-51
2023/05/08 12:35:17;;;;;;;2.15;1.95;;;;;;;;;;5039022;28;20931;-51
2023/05/08 12:37:44;;;;;;;3.65;1.80;;;;;;;;;;5040156;28;20238;-51
2023/05/08 12:40:24;;;;;;;4.45;2.58;;;;;;;;;;5043830;28;20297;-51
2023/05/08 12:42:51;;;;;;;4.68;1.80;;;;;;;;;;5041728;28;20226;-51
2023/05/08 12:45:18;;;;;;;2.90;2.45;;;;;;;;;;5042632;28;20220;-51
2023/05/08 12:47:47;;;;;;;1.90;1.80;;;;;;;;;;5043499;28;20231;-52
2023/05/08 12:50:14;;;;;;;3.25;2.00;;;;;;;;;;5040613;28;20612;-49
2023/05/08 12:52:42;;;;;;;3.90;1.52;;;;;;;;;;5040611;28;20270;-51
2023/05/08 12:55:20;;;;;;;1.75;1.65;;;;;;;;;;5039668;28;20254;-52
2023/05/08 12:57:46;;;;;;;4.03;2.63;;;;;;;;;;5043168;28;20235;-51
2023/05/08 13:00:14;;;;;;;2.47;2.28;;;;;;;;;;5043483;28;20238;-52
2023/05/08 13:02:50;;;;;;;3.15;1.98;;;;;;;;;;5039812;28;20327;-51
2023/05/08 13:05:18;;;;;;;3.42;1.88;;;;;;;;;;5038707;28;20257;-51
2023/05/08 13:07:46;;;;;;;2.40;1.95;;;;;;;;;;5048130;28;20235;-51
2023/05/08 13:10:12;;;;;;;2.38;2.13;;;;;;;;;;5041135;28;20236;-51
2023/05/08 13:12:38;;;;;;;3.47;1.33;;;;;;;;;;5048438;28;20295;-51
2023/05/08 13:15:05;;;;;;;1.92;1.73;;;;;;;;;;5051278;28;20231;-54
2023/05/08 13:17:32;;;;;;;3.22;1.77;;;;;;;;;;5052290;28;20255;-53
2023/05/08 13:19:58;;;;;;;2.17;1.90;;;;;;;;;;5048801;28;20232;-52
2023/05/08 13:22:25;;;;;;;2.08;1.92;;;;;;;;;;5046830;28;20715;-52
2023/05/08 13:24:53;;;;;;;2.17;1.90;;;;;;;;;;5044965;28;20716;-51
2023/05/08 13:27:19;;;;;;;2.33;1.70;;;;;;;;;;5046992;28;20227;-52
2023/05/08 13:29:45;;;;;;;2.58;1.73;;;;;;;;;;5050313;28;20669;-51
2023/05/08 13:32:12;;;;;;;1.90;1.70;;;;;;;;;;5042959;28;20250;-51
2023/05/08 13:34:38;;;;;;;4.93;2.20;;;;;;;;;;5048030;28;20330;-55
2023/05/08 13:37:05;;;;;;;3.03;1.80;;;;;;;;;;5047162;28;20699;-52
2023/05/08 13:39:36;;;;;;;1.98;1.80;;;;;;;;;;5045763;28;20227;-53
2023/05/08 13:42:03;;;;;;;2.38;1.85;;;;;;;;;;5043123;28;20228;-50
2023/05/08 13:44:30;;;;;;;2.67;1.58;;;;;;;;;;5047653;28;20236;-52
2023/05/08 13:46:56;;;;;;;4.07;1.90;;;;;;;;;;5048591;28;20232;-51
2023/05/08 13:49:23;;;;;;;2.45;1.70;;;;;;;;;;5047491;28;20342;-51
2023/05/08 13:51:49;;;;;;;2.15;1.90;;;;;;;;;;5046946;28;20232;-51
2023/05/08 13:54:15;;;;;;;3.90;1.77;;;;;;;;;;5042750;28;20232;-51
2023/05/08 13:56:42;;;;;;;4.10;1.60;;;;;;;;;;5046627;28;20249;-51
2023/05/08 13:59:11;;;;;;;3.97;2.00;;;;;;;;;;5043886;28;20245;-50
2023/05/08 14:01:37;;;;;;;1.52;1.42;;;;;;;;;;5045490;28;20294;-52
2023/05/08 14:04:04;;;;;;;2.13;1.70;;;;;;;;;;5045105;28;20274;-50
2023/05/08 14:06:31;;;;;;;1.70;1.58;;;;;;;;;;5038243;28;20228;-52
2023/05/08 14:08:58;;;;;;;1.88;1.45;;;;;;;;;;5032361;28;20290;-52
2023/05/08 14:11:24;;;;;;;1.85;1.45;;;;;;;;;;5036469;28;20231;-50
2023/05/08 14:13:51;;;;;;;2.50;2.10;;;;;;;;;;5031822;28;20232;-52
2023/05/08 14:16:19;;;;;;;2.08;1.40;;;;;;;;;;5036230;28;20726;-51
2023/05/08 14:18:45;;;;;;;2.22;1.75;;;;;;;;;;5040248;28;20228;-51
2023/05/08 14:21:12;;;;;;;1.63;1.52;;;;;;;;;;5036649;28;20918;-52
2023/05/08 14:23:40;;;;;;;2.40;1.90;;;;;;;;;;5039325;28;20735;-51
2023/05/08 14:26:06;;;;;;;2.17;1.60;;;;;;;;;;5039836;28;20655;-51
2023/05/08 14:28:33;;;;;;;3.70;1.67;;;;;;;;;;5037567;28;20254;-50
2023/05/08 14:30:59;;;;;;;1.70;1.60;;;;;;;;;;5038094;28;20319;-51
2023/05/08 14:33:27;;;;;;;3.10;1.90;;;;;;;;;;5034101;28;20249;-51
2023/05/08 14:35:54;;;;;;;2.58;1.67;;;;;;;;;;5038518;28;20316;-51
2023/05/08 14:38:20;;;;;;;2.53;1.70;;;;;;;;;;5038297;28;20239;-52
2023/05/08 14:40:49;;;;;;;3.78;1.95;;;;;;;;;;5035411;28;20228;-52
2023/05/08 14:43:16;;;;;;;2.70;1.50;;;;;;;;;;5036530;28;20321;-53
2023/05/08 14:45:42;;;;;;;1.70;1.60;;;;;;;;;;5035969;28;20323;-53
2023/05/08 14:48:09;;;;;;;2.28;2.08;;;;;;;;;;5039726;28;20763;-52